createdAt,value
2023-11-29T00:00:22.979Z,15.98
2023-11-29T00:02:49.955Z,16.35
2023-11-29T00:05:24.118Z,14.98
2023-11-29T00:07:53.999Z,15.98
2023-11-29T00:10:20.871Z,13.43
2023-11-29T00:12:47.704Z,13.90
2023-11-29T00:15:14.608Z,15.00
2023-11-29T00:17:41.933Z,15.48
2023-11-29T00:20:09.482Z,16.25
2023-11-29T00:22:36.614Z,14.80
2023-11-29T00:25:03.627Z,14.38
2023-11-29T00:27:30.617Z,16.42
2023-11-29T00:29:57.515Z,12.93
2023-11-29T00:32:24.487Z,12.90
2023-11-29T00:34:51.619Z,12.77
2023-11-29T00:37:18.554Z,15.73
2023-11-29T00:39:45.519Z,12.48
2023-11-29T00:42:12.538Z,13.75
2023-11-29T00:44:40.098Z,13.27
2023-11-29T00:47:07.146Z,23.58
2023-11-29T00:49:34.336Z,15.60
2023-11-29T00:52:01.330Z,14.25
2023-11-29T00:54:28.751Z,15.00
2023-11-29T00:56:55.630Z,14.23
2023-11-29T00:59:22.582Z,15.40
2023-11-29T01:01:49.464Z,14.05
2023-11-29T01:04:16.323Z,18.45
2023-11-29T01:06:43.214Z,15.52
2023-11-29T01:09:11.305Z,14.70
2023-11-29T01:11:38.206Z,16.15
2023-11-29T01:14:05.316Z,15.30
2023-11-29T01:16:32.610Z,14.40
2023-11-29T01:19:01.023Z,15.55
2023-11-29T01:21:32.380Z,15.18
2023-11-29T01:24:02.562Z,15.93
2023-11-29T01:26:30.536Z,14.05
2023-11-29T01:28:57.553Z,14.48
2023-11-29T01:31:27.746Z,13.60
2023-11-29T01:33:55.690Z,14.95
2023-11-29T01:36:22.934Z,13.63
2023-11-29T01:38:51.340Z,12.95
2023-11-29T01:41:18.287Z,13.65
2023-11-29T01:43:45.345Z,13.88
2023-11-29T01:46:12.550Z,16.52
2023-11-29T01:48:40.064Z,13.90
2023-11-29T01:51:07.910Z,13.70
2023-11-29T01:53:39.160Z,13.85
2023-11-29T01:56:07.331Z,14.00
2023-11-29T01:58:34.230Z,14.15
2023-11-29T02:01:01.528Z,16.63
2023-11-29T02:03:29.550Z,17.60
2023-11-29T02:05:56.580Z,14.32
2023-11-29T02:08:25.070Z,14.25
2023-11-29T02:10:52.181Z,14.00
2023-11-29T02:13:19.397Z,13.90
2023-11-29T02:15:46.603Z,14.90
2023-11-29T02:18:15.243Z,14.40
2023-11-29T02:20:42.487Z,13.77
2023-11-29T02:23:30.432Z,14.13
2023-11-29T02:25:57.583Z,13.52
2023-11-29T02:28:24.419Z,13.40
2023-11-29T02:30:51.342Z,13.88
2023-11-29T02:33:18.315Z,16.20
2023-11-29T02:35:45.192Z,13.30
2023-11-29T02:38:12.172Z,13.50
2023-11-29T02:40:39.086Z,13.50
2023-11-29T02:43:05.921Z,13.90
2023-11-29T02:45:33.865Z,12.77
2023-11-29T02:48:00.977Z,14.82
2023-11-29T02:50:27.945Z,14.43
2023-11-29T02:52:54.841Z,14.70
2023-11-29T02:55:21.707Z,14.82
2023-11-29T02:57:48.543Z,15.50
2023-11-29T03:00:15.590Z,14.63
2023-11-29T03:02:42.827Z,14.80
2023-11-29T03:05:09.798Z,15.60
2023-11-29T03:07:37.103Z,15.50
2023-11-29T03:10:04.132Z,12.93
2023-11-29T03:12:31.360Z,16.83
2023-11-29T03:14:58.339Z,15.88
2023-11-29T03:17:25.680Z,15.55
2023-11-29T03:19:52.569Z,17.38
2023-11-29T03:22:19.439Z,16.85
2023-11-29T03:24:47.662Z,16.20
2023-11-29T03:27:14.568Z,18.38
2023-11-29T03:29:41.546Z,21.55
2023-11-29T03:32:08.621Z,18.08
2023-11-29T03:34:35.478Z,19.77
2023-11-29T03:37:02.591Z,18.38
2023-11-29T03:39:29.661Z,19.80
2023-11-29T03:41:56.826Z,19.70
2023-11-29T03:44:23.837Z,16.85
2023-11-29T03:46:50.744Z,18.90
2023-11-29T03:49:17.755Z,16.80
2023-11-29T03:51:47.295Z,15.82
2023-11-29T03:56:43.050Z,18.35
2023-11-29T03:59:09.932Z,18.80
2023-11-29T04:01:36.951Z,18.40
2023-11-29T04:04:04.281Z,16.15
2023-11-29T04:06:31.183Z,18.65
2023-11-29T04:08:58.072Z,15.65
2023-11-29T04:11:25.099Z,16.48
2023-11-29T04:13:51.946Z,17.60
2023-11-29T04:16:28.879Z,16.55
2023-11-29T04:18:55.926Z,17.42
2023-11-29T04:21:28.016Z,16.58
2023-11-29T04:23:55.848Z,16.27
2023-11-29T04:26:29.517Z,18.33
2023-11-29T04:28:57.226Z,18.17
2023-11-29T04:31:25.512Z,16.80
2023-11-29T04:33:52.793Z,18.52
2023-11-29T04:36:20.046Z,18.48
2023-11-29T04:38:47.817Z,22.08
2023-11-29T04:41:14.956Z,20.65
2023-11-29T04:43:41.843Z,21.40
2023-11-29T04:46:12.974Z,18.92
2023-11-29T04:48:41.209Z,19.88
2023-11-29T04:51:09.623Z,22.08
2023-11-29T04:53:37.559Z,20.77
2023-11-29T04:56:06.759Z,20.23
2023-11-29T04:58:40.685Z,21.38
2023-11-29T05:01:13.488Z,19.88
2023-11-29T05:03:41.138Z,20.05
2023-11-29T05:06:11.059Z,22.60
2023-11-29T05:08:38.078Z,21.95
2023-11-29T05:11:06.508Z,20.00
2023-11-29T05:13:33.539Z,22.13
2023-11-29T05:16:00.933Z,22.88
2023-11-29T05:18:29.055Z,23.52
2023-11-29T05:20:56.174Z,21.00
2023-11-29T05:23:23.101Z,22.73
2023-11-29T05:25:49.938Z,22.58
2023-11-29T05:28:16.804Z,21.38
2023-11-29T05:30:43.718Z,22.95
2023-11-29T05:33:11.001Z,25.15
2023-11-29T05:35:38.333Z,24.15
2023-11-29T05:38:05.294Z,23.80
2023-11-29T05:40:32.127Z,24.23
2023-11-29T05:42:58.956Z,23.33
2023-11-29T05:45:26.631Z,24.08
2023-11-29T05:47:53.668Z,26.23
2023-11-29T05:50:20.925Z,23.40
2023-11-29T05:52:47.779Z,23.15
2023-11-29T05:55:16.757Z,21.50
2023-11-29T05:57:46.559Z,22.13
2023-11-29T06:00:24.397Z,22.88
2023-11-29T06:03:01.029Z,24.55
2023-11-29T06:05:29.003Z,21.80
2023-11-29T06:07:56.140Z,21.98
2023-11-29T06:10:23.116Z,23.83
2023-11-29T06:12:50.100Z,20.73
2023-11-29T06:15:17.053Z,22.17
2023-11-29T06:17:44.233Z,23.55
2023-11-29T06:20:13.157Z,22.45
2023-11-29T06:22:40.315Z,24.08
2023-11-29T06:25:09.260Z,22.15
2023-11-29T06:27:37.174Z,21.70
2023-11-29T06:30:05.476Z,23.98
2023-11-29T06:32:33.468Z,22.02
2023-11-29T06:35:00.505Z,27.40
2023-11-29T06:37:27.465Z,23.90
2023-11-29T06:39:55.371Z,22.45
2023-11-29T06:42:22.557Z,27.08
2023-11-29T06:44:50.231Z,25.30
2023-11-29T06:47:18.638Z,22.98
2023-11-29T06:49:46.173Z,24.35
2023-11-29T06:52:14.035Z,21.50
2023-11-29T06:54:41.218Z,23.35
2023-11-29T06:57:08.298Z,23.85
2023-11-29T06:59:36.833Z,23.40
2023-11-29T07:02:06.737Z,20.02
2023-11-29T07:04:35.070Z,21.23
2023-11-29T07:07:03.296Z,21.50
2023-11-29T07:09:31.263Z,27.58
2023-11-29T07:11:59.252Z,24.73
2023-11-29T07:14:26.322Z,21.08
2023-11-29T07:16:53.500Z,22.70
2023-11-29T07:19:20.784Z,21.25
2023-11-29T07:21:47.720Z,21.85
2023-11-29T07:24:14.659Z,21.35
2023-11-29T07:26:41.710Z,22.00
2023-11-29T07:29:09.614Z,22.85
2023-11-29T07:31:37.147Z,23.23
2023-11-29T07:34:04.394Z,23.88
2023-11-29T07:36:32.961Z,24.50
2023-11-29T07:39:00.860Z,23.10
2023-11-29T07:41:28.382Z,21.50
2023-11-29T07:43:55.789Z,21.65
2023-11-29T07:46:22.854Z,22.40
2023-11-29T07:48:49.797Z,21.63
2023-11-29T07:51:16.694Z,23.05
2023-11-29T07:53:46.202Z,22.83
2023-11-29T07:56:13.749Z,22.23
2023-11-29T07:58:40.954Z,23.65
2023-11-29T08:01:08.506Z,21.30
2023-11-29T08:03:35.978Z,22.48
2023-11-29T08:06:03.312Z,22.60
2023-11-29T08:08:30.437Z,22.67
2023-11-29T08:10:57.425Z,25.20
2023-11-29T08:13:24.888Z,25.38
2023-11-29T08:15:51.804Z,23.33
2023-11-29T08:18:19.239Z,26.25
2023-11-29T08:20:46.395Z,23.10
2023-11-29T08:23:13.324Z,25.20
2023-11-29T08:25:40.900Z,23.27
2023-11-29T08:28:07.835Z,24.48
2023-11-29T08:30:34.832Z,23.10
2023-11-29T08:33:02.067Z,24.85
2023-11-29T08:35:29.818Z,24.05
2023-11-29T08:37:57.593Z,27.58
2023-11-29T08:40:27.395Z,24.38
2023-11-29T08:42:54.532Z,22.90
2023-11-29T08:45:23.311Z,25.55
2023-11-29T08:47:50.484Z,24.30
2023-11-29T08:50:17.451Z,26.10
2023-11-29T08:52:45.250Z,25.15
2023-11-29T08:55:12.410Z,24.85
2023-11-29T08:57:40.309Z,34.55
2023-11-29T09:00:07.958Z,25.55
2023-11-29T09:02:35.045Z,23.63
2023-11-29T09:05:04.376Z,26.80
2023-11-29T09:07:32.758Z,23.85
2023-11-29T09:09:59.753Z,25.90
2023-11-29T09:12:27.034Z,23.35
2023-11-29T09:14:57.538Z,28.35
2023-11-29T09:17:25.594Z,27.15
2023-11-29T09:19:55.102Z,25.02
2023-11-29T09:22:25.694Z,27.90
2023-11-29T09:24:52.533Z,26.55
2023-11-29T09:27:19.945Z,23.77
2023-11-29T09:29:47.057Z,26.30
2023-11-29T09:32:14.070Z,26.35
2023-11-29T09:34:41.098Z,26.23
2023-11-29T09:37:07.914Z,26.35
2023-11-29T09:39:34.861Z,27.70
2023-11-29T09:42:04.135Z,24.70
2023-11-29T09:44:31.934Z,25.48
2023-11-29T09:47:00.580Z,25.70
2023-11-29T09:49:29.490Z,29.35
2023-11-29T09:51:57.105Z,30.65
2023-11-29T09:54:25.897Z,27.15
2023-11-29T09:56:53.051Z,26.42
2023-11-29T09:59:23.122Z,26.65
2023-11-29T10:01:52.561Z,28.27
2023-11-29T10:04:19.483Z,23.48
2023-11-29T10:06:46.936Z,27.25
2023-11-29T10:09:14.402Z,27.90
2023-11-29T10:11:42.806Z,25.88
2023-11-29T10:14:11.841Z,24.17
2023-11-29T10:16:39.038Z,25.40
2023-11-29T10:19:10.958Z,26.52
2023-11-29T10:21:42.823Z,24.17
2023-11-29T10:26:36.709Z,25.98
2023-11-29T10:29:03.722Z,27.42
2023-11-29T10:31:31.531Z,29.17
2023-11-29T10:33:59.132Z,25.95
2023-11-29T10:36:27.536Z,29.00
2023-11-29T10:39:09.839Z,27.02
2023-11-29T10:41:46.047Z,28.92
2023-11-29T10:44:15.413Z,25.60
2023-11-29T10:46:42.688Z,28.88
2023-11-29T10:49:30.995Z,28.85
2023-11-29T10:51:58.266Z,27.35
2023-11-29T10:54:39.614Z,28.30
2023-11-29T10:57:10.563Z,30.75
2023-11-29T10:59:42.714Z,26.10
2023-11-29T11:02:09.755Z,29.40
2023-11-29T11:04:44.425Z,28.63
2023-11-29T11:07:46.793Z,24.90
2023-11-29T11:10:23.272Z,25.02
2023-11-29T11:12:51.151Z,25.48
2023-11-29T11:15:24.792Z,24.58
2023-11-29T11:18:05.116Z,24.83
2023-11-29T11:20:51.551Z,25.77
2023-11-29T11:23:24.106Z,22.83
2023-11-29T11:25:57.810Z,23.13
2023-11-29T11:28:33.885Z,26.27
2023-11-29T11:31:08.923Z,24.95
2023-11-29T11:34:08.138Z,22.88
2023-11-29T11:36:35.282Z,21.98
2023-11-29T11:39:03.075Z,22.90
2023-11-29T11:41:29.985Z,22.60
2023-11-29T11:43:56.890Z,23.45
2023-11-29T11:46:24.453Z,23.35
2023-11-29T11:48:51.481Z,25.15
2023-11-29T11:51:21.864Z,22.90
2023-11-29T11:53:48.932Z,24.98
2023-11-29T11:56:20.263Z,22.65
2023-11-29T11:58:47.651Z,21.80
2023-11-29T12:01:15.419Z,24.15
2023-11-29T12:03:42.733Z,21.65
2023-11-29T12:06:10.592Z,23.30
2023-11-29T12:08:38.814Z,26.08
2023-11-29T12:11:08.772Z,26.40
2023-11-29T12:13:36.110Z,24.27
2023-11-29T12:16:16.278Z,21.73
2023-11-29T12:18:43.666Z,23.10
2023-11-29T12:21:10.864Z,26.35
2023-11-29T12:23:42.892Z,24.58
2023-11-29T12:26:15.001Z,23.63
2023-11-29T12:28:43.272Z,24.15
2023-11-29T12:31:10.888Z,23.13
2023-11-29T12:33:39.505Z,24.10
2023-11-29T12:36:07.023Z,24.60
2023-11-29T12:38:34.739Z,24.45
2023-11-29T12:41:01.615Z,21.38
2023-11-29T12:43:28.553Z,20.40
2023-11-29T12:45:57.564Z,22.92
2023-11-29T12:48:26.972Z,22.25
2023-11-29T12:50:54.272Z,23.95
2023-11-29T12:53:21.203Z,21.95
2023-11-29T12:55:49.395Z,21.20
2023-11-29T12:58:16.377Z,23.75
2023-11-29T13:00:46.372Z,21.55
2023-11-29T13:03:13.538Z,21.35
2023-11-29T13:05:40.491Z,23.50
2023-11-29T13:08:07.924Z,21.05
2023-11-29T13:10:34.870Z,21.20
2023-11-29T13:13:02.584Z,25.58
2023-11-29T13:15:29.580Z,25.17
2023-11-29T13:17:57.130Z,23.05
2023-11-29T13:20:24.138Z,21.73
2023-11-29T13:22:53.074Z,22.67
2023-11-29T13:25:20.020Z,22.55
2023-11-29T13:27:47.181Z,21.48
2023-11-29T13:30:14.793Z,23.75
2023-11-29T13:32:41.887Z,29.23
2023-11-29T13:35:11.451Z,23.45
2023-11-29T13:37:39.310Z,26.15
2023-11-29T13:40:07.570Z,25.83
2023-11-29T13:42:34.523Z,24.30
2023-11-29T13:45:05.361Z,22.73
2023-11-29T13:47:32.740Z,24.10
2023-11-29T13:49:59.797Z,22.55
2023-11-29T13:52:28.273Z,23.95
2023-11-29T13:54:55.917Z,26.77
2023-11-29T13:57:23.311Z,28.13
2023-11-29T13:59:50.478Z,22.42
2023-11-29T14:02:19.130Z,23.13
2023-11-29T14:04:48.417Z,22.38
2023-11-29T14:07:16.126Z,23.60
2023-11-29T14:09:43.983Z,24.55
2023-11-29T14:12:11.125Z,23.70
2023-11-29T14:14:38.278Z,25.58
2023-11-29T14:17:05.577Z,24.88
2023-11-29T14:19:32.548Z,23.85
2023-11-29T14:21:59.554Z,25.73
2023-11-29T14:24:26.406Z,27.15
2023-11-29T14:26:55.370Z,23.73
2023-11-29T14:29:23.782Z,23.17
2023-11-29T14:31:51.969Z,24.83
2023-11-29T14:34:19.636Z,25.13
2023-11-29T14:36:48.111Z,22.50
2023-11-29T14:39:15.507Z,22.95
2023-11-29T14:41:44.644Z,24.13
2023-11-29T14:44:12.317Z,23.48
2023-11-29T14:46:39.560Z,23.45
2023-11-29T14:49:13.577Z,23.38
2023-11-29T14:51:46.838Z,21.30
2023-11-29T14:54:13.747Z,21.67
2023-11-29T14:56:40.789Z,23.10
2023-11-29T14:59:07.720Z,22.58
2023-11-29T15:01:35.798Z,20.63
2023-11-29T15:04:03.044Z,20.20
2023-11-29T15:06:29.997Z,23.55
2023-11-29T15:08:56.973Z,23.25
2023-11-29T15:11:23.914Z,21.88
2023-11-29T15:13:51.357Z,22.08
2023-11-29T15:16:18.489Z,21.80
2023-11-29T15:18:46.976Z,23.08
2023-11-29T15:21:14.081Z,22.45
2023-11-29T15:23:40.956Z,23.75
2023-11-29T15:26:08.036Z,22.48
2023-11-29T15:28:37.965Z,22.70
2023-11-29T15:31:05.624Z,22.70
2023-11-29T15:33:32.762Z,21.25
2023-11-29T15:36:01.180Z,20.40
2023-11-29T15:38:28.363Z,19.50
2023-11-29T15:40:55.242Z,20.15
2023-11-29T15:43:22.632Z,17.98
2023-11-29T15:45:49.995Z,19.55
2023-11-29T15:48:17.160Z,21.83
2023-11-29T15:50:44.216Z,22.30
2023-11-29T15:53:12.282Z,22.38
2023-11-29T15:55:39.472Z,23.63
2023-11-29T15:58:06.438Z,20.45
2023-11-29T16:00:34.816Z,22.33
2023-11-29T16:03:01.911Z,20.77
2023-11-29T16:05:29.081Z,20.20
2023-11-29T16:07:55.993Z,21.17
2023-11-29T16:10:22.878Z,20.00
2023-11-29T16:12:49.829Z,22.27
2023-11-29T16:15:16.834Z,20.40
2023-11-29T16:17:43.873Z,20.08
2023-11-29T16:20:11.146Z,22.35
2023-11-29T16:22:38.064Z,20.70
2023-11-29T16:25:06.576Z,18.80
2023-11-29T16:27:37.173Z,22.17
2023-11-29T16:30:06.495Z,20.65
2023-11-29T16:32:34.452Z,19.40
2023-11-29T16:35:01.769Z,21.55
2023-11-29T16:37:31.321Z,18.58
2023-11-29T16:39:58.795Z,19.80
2023-11-29T16:42:25.903Z,19.48
2023-11-29T16:44:53.003Z,20.65
2023-11-29T16:47:20.200Z,20.85
2023-11-29T16:49:47.664Z,23.05
2023-11-29T16:52:14.687Z,20.17
2023-11-29T16:54:41.693Z,20.27
2023-11-29T16:57:09.157Z,17.67
2023-11-29T16:59:37.381Z,18.90
2023-11-29T17:02:04.572Z,20.50
2023-11-29T17:04:31.679Z,21.00
2023-11-29T17:06:58.676Z,18.88
2023-11-29T17:09:25.629Z,19.98
2023-11-29T17:11:53.631Z,19.50
2023-11-29T17:14:20.654Z,18.98
2023-11-29T17:16:48.190Z,20.35
2023-11-29T17:19:15.203Z,19.45
2023-11-29T17:21:42.103Z,18.70
2023-11-29T17:24:09.057Z,18.55
2023-11-29T17:26:37.235Z,18.17
2023-11-29T17:29:04.194Z,18.38
2023-11-29T17:31:31.759Z,19.35
2023-11-29T17:33:58.685Z,20.83
2023-11-29T17:36:25.698Z,19.10
2023-11-29T17:38:52.819Z,18.05
2023-11-29T17:41:19.737Z,18.48
2023-11-29T17:43:46.668Z,20.02
2023-11-29T17:46:13.626Z,18.02
2023-11-29T17:48:40.615Z,18.73
2023-11-29T17:51:08.509Z,19.58
2023-11-29T17:53:35.512Z,18.90
2023-11-29T17:56:02.587Z,18.35
2023-11-29T17:58:29.457Z,18.35
2023-11-29T18:00:56.495Z,18.13
2023-11-29T18:03:24.194Z,17.50
2023-11-29T18:05:51.793Z,17.33
2023-11-29T18:08:19.129Z,17.33
2023-11-29T18:10:53.682Z,19.52
2023-11-29T18:13:22.174Z,18.58
2023-11-29T18:15:49.600Z,21.00
2023-11-29T18:18:17.364Z,17.50
2023-11-29T18:20:54.014Z,17.15
2023-11-29T18:23:22.127Z,17.63
2023-11-29T18:25:58.813Z,19.98
2023-11-29T18:28:28.916Z,18.23
2023-11-29T18:30:56.184Z,18.40
2023-11-29T18:33:24.365Z,19.25
2023-11-29T18:35:51.506Z,17.60
2023-11-29T18:38:18.437Z,16.98
2023-11-29T18:40:47.480Z,17.10
2023-11-29T18:43:14.820Z,18.58
2023-11-29T18:45:41.827Z,19.33
2023-11-29T18:48:10.783Z,17.63
2023-11-29T18:50:38.815Z,16.77
2023-11-29T18:53:06.187Z,15.45
2023-11-29T18:55:33.759Z,17.90
2023-11-29T18:58:00.783Z,16.40
2023-11-29T19:00:27.721Z,18.48
2023-11-29T19:02:55.033Z,16.73
2023-11-29T19:05:22.408Z,17.35
2023-11-29T19:07:49.337Z,16.02
2023-11-29T19:10:16.197Z,16.95
2023-11-29T19:12:43.232Z,18.73
2023-11-29T19:15:10.584Z,16.10
2023-11-29T19:17:37.678Z,16.75
2023-11-29T19:20:05.695Z,16.90
2023-11-29T19:22:33.996Z,17.80
2023-11-29T19:25:01.126Z,18.23
2023-11-29T19:27:28.464Z,18.80
2023-11-29T19:29:55.642Z,18.30
2023-11-29T19:32:23.199Z,17.17
2023-11-29T19:34:50.366Z,18.13
2023-11-29T19:37:17.539Z,14.32
2023-11-29T19:39:44.592Z,17.35
2023-11-29T19:42:11.550Z,15.95
2023-11-29T19:44:40.094Z,18.27
2023-11-29T19:47:13.150Z,17.50
2023-11-29T19:49:43.048Z,16.63
2023-11-29T19:52:10.516Z,16.17
2023-11-29T19:54:40.339Z,17.00
2023-11-29T19:57:07.711Z,15.45
2023-11-29T19:59:34.959Z,15.23
2023-11-29T20:02:02.135Z,17.83
2023-11-29T20:04:29.524Z,15.77
2023-11-29T20:06:56.662Z,20.80
2023-11-29T20:09:23.891Z,17.75
2023-11-29T20:11:51.254Z,15.07
2023-11-29T20:14:22.673Z,16.92
2023-11-29T20:16:56.336Z,15.10
2023-11-29T20:19:23.946Z,15.57
2023-11-29T20:21:51.171Z,15.43
2023-11-29T20:24:18.404Z,15.63
2023-11-29T20:26:45.764Z,15.88
2023-11-29T20:29:12.940Z,16.05
2023-11-29T20:31:40.118Z,16.75
2023-11-29T20:34:16.958Z,14.52
2023-11-29T20:36:48.538Z,15.52
2023-11-29T20:39:15.716Z,16.15
2023-11-29T20:41:49.481Z,16.00
2023-11-29T20:44:17.938Z,15.45
2023-11-29T20:46:45.594Z,15.13
2023-11-29T20:49:12.757Z,14.95
2023-11-29T20:51:42.445Z,14.65
2023-11-29T20:54:09.744Z,18.58
2023-11-29T20:56:37.967Z,17.05
2023-11-29T20:59:05.189Z,18.50
2023-11-29T21:01:32.358Z,14.93
2023-11-29T21:03:59.991Z,16.17
2023-11-29T21:06:27.471Z,20.35
2023-11-29T21:08:54.689Z,14.65
2023-11-29T21:11:23.377Z,16.33
2023-11-29T21:13:51.201Z,17.55
2023-11-29T21:16:18.744Z,14.73
2023-11-29T21:18:46.044Z,13.35
2023-11-29T21:21:13.735Z,16.70
2023-11-29T21:23:41.445Z,16.73
2023-11-29T21:26:08.666Z,16.25
2023-11-29T21:28:37.003Z,13.38
2023-11-29T21:31:04.416Z,14.82
2023-11-29T21:33:31.761Z,14.10
2023-11-29T21:35:58.978Z,14.55
2023-11-29T21:38:26.100Z,15.07
2023-11-29T21:40:56.173Z,13.63
2023-11-29T21:43:23.302Z,14.25
2023-11-29T21:45:50.424Z,14.02
2023-11-29T21:48:17.652Z,14.30
2023-11-29T21:50:45.111Z,12.82
2023-11-29T21:53:12.558Z,12.73
2023-11-29T21:55:39.888Z,13.95
2023-11-29T21:58:07.211Z,13.13
2023-11-29T22:00:37.181Z,15.90
2023-11-29T22:03:04.613Z,14.23
2023-11-29T22:05:31.519Z,12.85
2023-11-29T22:07:58.461Z,10.48
2023-11-29T22:10:27.446Z,14.18
2023-11-29T22:12:54.455Z,12.80
2023-11-29T22:15:21.383Z,13.00
2023-11-29T22:17:48.475Z,14.15
2023-11-29T22:20:15.496Z,11.00
2023-11-29T22:22:42.348Z,12.90
2023-11-29T22:25:09.483Z,12.15
2023-11-29T22:27:37.124Z,11.27
2023-11-29T22:30:04.350Z,12.40
2023-11-29T22:32:32.758Z,12.48
2023-11-29T22:34:59.613Z,13.25
2023-11-29T22:37:26.772Z,12.25
2023-11-29T22:39:53.634Z,11.07
2023-11-29T22:42:20.744Z,11.48
2023-11-29T22:44:48.956Z,10.40
2023-11-29T22:47:16.130Z,10.30
2023-11-29T22:49:43.003Z,11.95
2023-11-29T22:52:09.930Z,13.38
2023-11-29T22:54:36.830Z,12.10
2023-11-29T22:57:04.261Z,12.02
2023-11-29T22:59:31.160Z,13.05
2023-11-29T23:01:58.247Z,9.65
2023-11-29T23:04:25.340Z,11.50
2023-11-29T23:06:52.359Z,10.98
2023-11-29T23:09:19.310Z,10.40
2023-11-29T23:11:46.941Z,8.63
2023-11-29T23:14:13.848Z,10.35
2023-11-29T23:16:40.817Z,9.27
2023-11-29T23:19:07.846Z,13.90
2023-11-29T23:21:34.826Z,10.90
2023-11-29T23:24:01.692Z,11.18
2023-11-29T23:26:28.588Z,12.32
2023-11-29T23:28:55.481Z,10.52
2023-11-29T23:31:22.377Z,10.00
2023-11-29T23:33:49.511Z,11.93
2023-11-29T23:36:16.479Z,11.07
2023-11-29T23:38:43.556Z,11.27
2023-11-29T23:41:13.652Z,10.57
2023-11-29T23:43:40.491Z,10.98
2023-11-29T23:46:07.773Z,12.93
2023-11-29T23:48:34.652Z,9.85
2023-11-29T23:51:01.659Z,11.95
2023-11-29T23:53:28.631Z,14.13
2023-11-29T23:55:55.503Z,13.27
2023-11-29T23:58:22.371Z,11.65
